Time,TemperatureF,DewpointF,PressureIn,WindDirection,WindDirectionDegrees,WindSpeedMPH,WindSpeedGustMPH,Humidity,HourlyPrecipIn,Conditions,Clouds,dailyrainin,SoftwareType,DateUTC
2013-02-17 00:00:00,33.7,13.0,29.97,ENE,73,3.5,3.5,42,0.00,-RA,OVC,0.00,WeatherDisplay:10.37,2013-02-17 07:00:00,
2013-02-17 00:05:00,33.5,12.8,29.97,ENE,73,0.0,0.0,42,0.00,-RA,OVC,0.00,WeatherDisplay:10.37,2013-02-17 07:05:00,
2013-02-17 00:10:00,33.1,13.5,29.97,ENE,60,4.6,4.6,44,0.00,-RA,OVC,0.00,WeatherDisplay:10.37,2013-02-17 07:10:00,
2013-02-17 00:15:00,32.6,12.5,29.97,SE,144,9.2,9.2,43,0.00,-RA,OVC,0.00,WeatherDisplay:10.37,2013-02-17 07:15:00,
2013-02-17 00:20:00,35.1,8.2,29.97,SE,130,3.5,3.6,32,0.00,-RA,OVC,0.00,WeatherDisplay:10.37,2013-02-17 07:20:00,
2013-02-17 00:25:00,40.2,8.0,29.97,SE,129,10.4,10.4,26,0.00,-RA,OVC,0.00,WeatherDisplay:10.37,2013-02-17 07:25:00,
2013-02-17 00:30:00,43.6,8.2,29.97,SE,134,5.8,5.8,23,0.00,-RA,OVC,0.00,WeatherDisplay:10.37,2013-02-17 07:30:00,
2013-02-17 00:35:00,45.0,7.3,29.97,SE,142,8.1,8.1,21,0.00,-RA,OVC,0.00,WeatherDisplay:10.37,2013-02-17 07:35:00,
2013-02-17 00:40:00,45.9,7.0,29.97,South,170,11.5,11.5,20,0.00,-RA,OVC,0.00,WeatherDisplay:10.37,2013-02-17 07:40:00,
2013-02-17 00:45:00,46.4,6.3,29.97,SE,126,10.4,10.4,19,0.00,-RA,OVC,0.00,WeatherDisplay:10.37,2013-02-17 07:45:00,
2013-02-17 00:50:00,46.5,6.4,29.97,SE,137,11.5,11.5,19,0.00,-RA,OVC,0.00,WeatherDisplay:10.37,2013-02-17 07:50:00,
2013-02-17 00:55:00,46.6,6.5,29.97,ESE,122,11.5,11.5,19,0.00,-RA,OVC,0.00,WeatherDisplay:10.37,2013-02-17 07:55:00,
2013-02-17 01:00:00,46.7,6.5,29.97,SE,141,10.4,10.4,19,0.00,-RA,OVC,0.00,WeatherDisplay:10.37,2013-02-17 08:00:00,
2013-02-17 01:05:00,46.4,6.3,29.97,SE,141,6.9,6.9,19,0.00,-RA,OVC,0.00,WeatherDisplay:10.37,2013-02-17 08:05:00,
2013-02-17 01:10:00,46.2,6.1,29.97,SE,125,9.2,9.2,19,0.00,-RA,OVC,0.00,WeatherDisplay:10.37,2013-02-17 08:10:00,
2013-02-17 01:15:00,45.8,6.9,29.97,SE,137,6.9,6.9,20,0.00,-RA,OVC,0.00,WeatherDisplay:10.37,2013-02-17 08:15:00,
2013-02-17 01:20:00,45.4,6.6,29.97,SE,146,3.5,3.5,20,0.00,-RA,OVC,0.00,WeatherDisplay:10.37,2013-02-17 08:20:00,
2013-02-17 01:25:00,45.2,6.4,29.97,SSE,161,3.5,3.5,20,0.00,-RA,OVC,0.00,WeatherDisplay:10.37,2013-02-17 08:25:00,
2013-02-17 01:30:00,44.3,10.6,29.97,SSE,161,3.5,3.5,25,0.00,-RA,OVC,0.00,WeatherDisplay:10.37,2013-02-17 08:30:00,
2013-02-17 01:35:00,41.9,9.5,29.95,SSE,161,0.0,0.0,26,0.00,-RA,OVC,0.00,WeatherDisplay:10.37,2013-02-17 08:35:00,
2013-02-17 01:40:00,40.3,9.7,29.95,SSE,161,0.0,0.0,28,0.00,-RA,OVC,0.00,WeatherDisplay:10.37,2013-02-17 08:40:00,
2013-02-17 01:45:00,38.9,9.3,29.95,SSE,161,3.5,3.5,29,0.00,-RA,OVC,0.00,WeatherDisplay:10.37,2013-02-17 08:45:00,
2013-02-17 01:50:00,37.5,9.6,29.95,SSE,161,1.1,0.0,31,0.00,-RA,OVC,0.00,WeatherDisplay:10.37,2013-02-17 08:50:00,
2013-02-17 01:55:00,36.5,10.1,29.95,SSE,161,1.1,1.1,33,0.00,-RA,OVC,0.00,WeatherDisplay:10.37,2013-02-17 08:55:00,
2013-02-17 02:00:00,35.6,9.9,29.95,SSE,161,0.0,0.0,34,0.00,-RA,OVC,0.00,WeatherDisplay:10.37,2013-02-17 09:00:00,
2013-02-17 02:05:00,35.0,10.1,29.95,SSE,161,0.0,0.0,35,0.00,-RA,OVC,0.00,WeatherDisplay:10.37,2013-02-17 09:05:00,
2013-02-17 02:10:00,34.4,9.5,29.95,SSE,161,3.5,3.5,35,0.00,-RA,OVC,0.00,WeatherDisplay:10.37,2013-02-17 09:10:00,
2013-02-17 02:15:00,34.1,9.9,29.95,SSE,161,2.3,2.3,36,0.00,-RA,OVC,0.00,WeatherDisplay:10.37,2013-02-17 09:15:00,
2013-02-17 02:20:00,33.7,10.1,29.95,SSE,161,2.3,2.3,37,0.00,-RA,OVC,0.00,WeatherDisplay:10.37,2013-02-17 09:20:00,
2013-02-17 02:25:00,33.6,10.1,29.95,SSE,161,2.3,2.3,37,0.00,-RA,OVC,0.00,WeatherDisplay:10.37,2013-02-17 09:25:00,
2013-02-17 02:30:00,32.8,10.5,29.95,SSE,161,0.0,0.0,39,0.00,-RA,OVC,0.00,WeatherDisplay:10.37,2013-02-17 09:30:00,
2013-02-17 02:35:00,32.6,10.9,29.94,SSE,161,2.3,2.3,40,0.00,-RA,OVC,0.00,WeatherDisplay:10.37,2013-02-17 09:35:00,
2013-02-17 02:40:00,32.5,11.4,29.94,SSE,161,0.0,0.0,41,0.00,-RA,OVC,0.00,WeatherDisplay:10.37,2013-02-17 09:40:00,
2013-02-17 02:45:00,32.4,10.2,29.92,SSE,161,0.0,0.0,39,0.00,-RA,OVC,0.00,WeatherDisplay:10.37,2013-02-17 09:45:00,
2013-02-17 02:50:00,32.3,10.6,29.92,SSE,161,2.3,2.3,40,0.00,-RA,OVC,0.00,WeatherDisplay:10.37,2013-02-17 09:50:00,
2013-02-17 02:55:00,32.2,10.0,29.92,SSE,161,0.0,0.0,39,0.00,-RA,OVC,0.00,WeatherDisplay:10.37,2013-02-17 09:55:00,
2013-02-17 03:00:00,32.1,11.0,29.92,SSE,161,0.0,0.0,41,0.00,-RA,OVC,0.00,WeatherDisplay:10.37,2013-02-17 10:00:00,
2013-02-17 03:05:00,31.9,9.7,29.92,SSE,161,0.0,0.0,39,0.00,-RA,OVC,0.00,WeatherDisplay:10.37,2013-02-17 10:05:00,
2013-02-17 03:10:00,31.9,10.8,29.92,SSE,160,1.1,1.1,41,0.00,-RA,OVC,0.00,WeatherDisplay:10.37,2013-02-17 10:10:00,
2013-02-17 03:15:00,31.9,9.7,29.92,SSE,160,0.0,0.1,39,0.00,-RA,OVC,0.00,WeatherDisplay:10.37,2013-02-17 10:15:00,
2013-02-17 03:20:00,32.0,9.2,29.92,SSE,160,0.0,0.0,38,0.00,-RA,OVC,0.00,WeatherDisplay:10.37,2013-02-17 10:20:00,
2013-02-17 03:25:00,32.1,8.7,29.92,SSE,160,0.0,0.0,37,0.00,-RA,OVC,0.00,WeatherDisplay:10.37,2013-02-17 10:25:00,
2013-02-17 03:30:00,32.0,10.4,29.92,SSE,160,0.0,0.0,40,0.00,-RA,OVC,0.00,WeatherDisplay:10.37,2013-02-17 10:30:00,
2013-02-17 03:35:00,31.6,10.0,29.90,SSE,160,0.0,0.0,40,0.00,-RA,OVC,0.00,WeatherDisplay:10.37,2013-02-17 10:35:00,
2013-02-17 03:40:00,31.4,10.9,29.90,SSE,160,0.0,0.0,42,0.00,-RA,OVC,0.00,WeatherDisplay:10.37,2013-02-17 10:40:00,
2013-02-17 03:45:00,31.1,11.2,29.90,SSE,160,0.0,0.0,43,0.00,-RA,OVC,0.00,WeatherDisplay:10.37,2013-02-17 10:45:00,
2013-02-17 03:50:00,30.7,10.3,29.90,SSE,160,1.1,1.1,42,0.00,-RA,OVC,0.00,WeatherDisplay:10.37,2013-02-17 10:50:00,
2013-02-17 03:55:00,30.5,10.6,29.90,SSE,160,0.0,0.0,43,0.00,-RA,OVC,0.00,WeatherDisplay:10.37,2013-02-17 10:55:00,
2013-02-17 04:00:00,30.2,11.4,29.90,SSE,160,0.0,0.0,45,0.00,-RA,OVC,0.00,WeatherDisplay:10.37,2013-02-17 11:00:00,
2013-02-17 04:05:00,29.8,11.5,29.90,SSE,160,3.5,3.5,46,0.00,-RA,OVC,0.00,WeatherDisplay:10.37,2013-02-17 11:05:00,
2013-02-17 04:10:00,29.7,10.4,29.90,SSE,160,1.1,1.1,44,0.00,-RA,OVC,0.00,WeatherDisplay:10.37,2013-02-17 11:10:00,
2013-02-17 04:15:00,30.0,11.2,29.90,SSE,160,0.0,0.0,45,0.00,-RA,OVC,0.00,WeatherDisplay:10.37,2013-02-17 11:15:00,
2013-02-17 04:20:00,29.9,11.6,29.90,SSE,160,0.0,0.0,46,0.00,-RA,OVC,0.00,WeatherDisplay:10.37,2013-02-17 11:20:00,
2013-02-17 04:25:00,29.7,10.9,29.88,SSE,160,0.0,0.0,45,0.00,-RA,OVC,0.00,WeatherDisplay:10.37,2013-02-17 11:25:00,
2013-02-17 04:30:00,29.6,10.8,29.88,SSE,160,0.0,0.0,45,0.00,-RA,OVC,0.00,WeatherDisplay:10.37,2013-02-17 11:30:00,
2013-02-17 04:35:00,29.6,10.8,29.88,SSE,160,0.0,0.0,45,0.00,-RA,OVC,0.00,WeatherDisplay:10.37,2013-02-17 11:35:00,
2013-02-17 04:40:00,29.4,10.6,29.88,SSE,160,0.0,0.0,45,0.00,-RA,OVC,0.00,WeatherDisplay:10.37,2013-02-17 11:40:00,
2013-02-17 04:45:00,29.3,10.6,29.88,SSE,160,0.0,0.0,45,0.00,-RA,OVC,0.00,WeatherDisplay:10.37,2013-02-17 11:45:00,
2013-02-17 04:50:00,29.3,11.1,29.88,SSE,160,0.0,0.0,46,0.00,-RA,OVC,0.00,WeatherDisplay:10.37,2013-02-17 11:50:00,
2013-02-17 04:55:00,29.0,11.3,29.88,SSE,160,2.3,2.3,47,0.00,-RA,OVC,0.00,WeatherDisplay:10.37,2013-02-17 11:55:00,
2013-02-17 05:00:00,28.7,11.0,29.88,SSE,160,2.3,2.3,47,0.00,-RA,OVC,0.00,WeatherDisplay:10.37,2013-02-17 12:00:00,
2013-02-17 05:05:00,28.4,10.7,29.88,SE,140,3.5,3.5,47,0.00,-RA,OVC,0.00,WeatherDisplay:10.37,2013-02-17 12:05:00,
2013-02-17 05:10:00,28.3,10.6,29.88,NE,43,0.0,0.0,47,0.00,-RA,OVC,0.00,WeatherDisplay:10.37,2013-02-17 12:10:00,
2013-02-17 05:16:00,28.1,11.4,29.88,NE,43,0.0,0.0,49,0.00,-RA,OVC,0.00,WeatherDisplay:10.37,2013-02-17 12:16:00,
2013-02-17 05:21:00,27.8,10.6,29.88,NE,43,3.5,3.5,48,0.00,-RA,OVC,0.00,WeatherDisplay:10.37,2013-02-17 12:21:00,
2013-02-17 05:26:00,27.8,10.2,29.88,NE,43,0.0,0.3,47,0.00,-RA,OVC,0.00,WeatherDisplay:10.37,2013-02-17 12:26:00,
2013-02-17 05:31:00,27.7,11.5,29.88,NE,43,0.0,0.5,50,0.00,-RA,OVC,0.00,WeatherDisplay:10.37,2013-02-17 12:31:00,
2013-02-17 05:36:00,27.3,11.5,29.88,NE,43,3.5,3.5,51,0.00,-RA,OVC,0.00,WeatherDisplay:10.37,2013-02-17 12:36:00,
2013-02-17 05:41:00,27.0,10.8,29.88,East,92,0.0,0.0,50,0.00,-RA,OVC,0.00,WeatherDisplay:10.37,2013-02-17 12:41:00,
2013-02-17 05:46:00,26.9,11.2,29.88,East,92,2.0,0.0,51,0.00,-RA,OVC,0.00,WeatherDisplay:10.37,2013-02-17 12:46:00,
2013-02-17 05:51:00,26.7,10.5,29.88,East,94,0.0,0.0,50,0.00,-RA,OVC,0.00,WeatherDisplay:10.37,2013-02-17 12:51:00,
2013-02-17 05:56:00,26.6,11.7,29.88,East,90,3.5,3.5,53,0.00,-RA,OVC,0.00,WeatherDisplay:10.37,2013-02-17 12:56:00,
2013-02-17 06:01:00,26.3,11.0,29.88,East,90,3.5,3.5,52,0.00,-RA,OVC,0.00,WeatherDisplay:10.37,2013-02-17 13:01:00,
2013-02-17 06:06:00,26.3,11.5,29.88,East,91,0.0,0.0,53,0.00,-RA,OVC,0.00,WeatherDisplay:10.37,2013-02-17 13:06:00,
2013-02-17 06:11:00,26.1,10.9,29.88,East,90,2.3,2.3,52,0.00,-RA,OVC,0.00,WeatherDisplay:10.37,2013-02-17 13:11:00,
2013-02-17 06:16:00,26.5,9.9,29.88,East,90,2.3,0.0,49,0.00,-RA,OVC,0.00,WeatherDisplay:10.37,2013-02-17 13:16:00,
2013-02-17 06:21:00,26.7,11.0,29.88,East,90,2.3,2.3,51,0.00,-RA,OVC,0.00,WeatherDisplay:10.37,2013-02-17 13:21:00,
2013-02-17 06:26:00,26.5,10.8,29.88,SE,126,6.9,6.9,51,0.00,-RA,OVC,0.00,WeatherDisplay:10.37,2013-02-17 13:26:00,
2013-02-17 06:31:00,26.8,10.6,29.88,SE,125,3.5,3.5,50,0.00,-RA,OVC,0.00,WeatherDisplay:10.37,2013-02-17 13:31:00,
2013-02-17 06:36:00,26.8,9.7,29.88,SE,126,2.3,2.3,48,0.00,-RA,OVC,0.00,WeatherDisplay:10.37,2013-02-17 13:36:00,
2013-02-17 06:41:00,26.9,9.8,29.88,SE,126,0.0,0.0,48,0.00,-RA,OVC,0.00,WeatherDisplay:10.37,2013-02-17 13:41:00,
2013-02-17 06:46:00,26.8,9.7,29.88,SE,126,1.1,1.1,48,0.00,-RA,OVC,0.00,WeatherDisplay:10.37,2013-02-17 13:46:00,
2013-02-17 06:51:00,26.8,10.2,29.88,SE,126,0.0,0.0,49,0.00,-RA,OVC,0.00,WeatherDisplay:10.37,2013-02-17 13:51:00,
2013-02-17 06:56:00,26.7,10.5,29.84,SE,126,2.3,2.3,50,0.00,-RA,OVC,0.00,WeatherDisplay:10.37,2013-02-17 13:56:00,
2013-02-17 07:01:00,26.6,10.4,29.84,SE,126,1.1,0.0,50,0.00,-RA,OVC,0.00,WeatherDisplay:10.37,2013-02-17 14:01:00,
2013-02-17 07:06:00,26.5,10.8,29.84,SE,126,0.0,0.0,51,0.00,-RA,OVC,0.00,WeatherDisplay:10.37,2013-02-17 14:06:00,
2013-02-17 07:11:00,26.6,10.4,29.84,SE,126,2.3,2.3,50,0.00,-RA,OVC,0.00,WeatherDisplay:10.37,2013-02-17 14:11:00,
2013-02-17 07:16:00,26.8,10.6,29.84,SE,126,0.0,0.0,50,0.00,-RA,OVC,0.00,WeatherDisplay:10.37,2013-02-17 14:16:00,
2013-02-17 07:21:00,26.9,10.7,29.84,SE,126,3.5,3.5,50,0.00,-RA,OVC,0.00,WeatherDisplay:10.37,2013-02-17 14:21:00,
2013-02-17 07:26:00,27.1,10.9,29.84,SE,126,0.0,0.0,50,0.00,-RA,OVC,0.00,WeatherDisplay:10.37,2013-02-17 14:26:00,
2013-02-17 07:31:00,27.1,10.4,29.84,SE,126,0.0,0.0,49,0.00,-RA,OVC,0.00,WeatherDisplay:10.37,2013-02-17 14:31:00,
2013-02-17 07:36:00,27.2,11.0,29.84,SE,126,3.0,3.0,50,0.00,-RA,OVC,0.00,WeatherDisplay:10.37,2013-02-17 14:36:00,
2013-02-17 07:41:00,27.3,11.1,29.84,ESE,114,3.5,3.5,50,0.00,-RA,OVC,0.00,WeatherDisplay:10.37,2013-02-17 14:41:00,
2013-02-17 07:46:00,27.5,10.4,29.84,SE,141,2.3,2.3,48,0.00,-RA,OVC,0.00,WeatherDisplay:10.37,2013-02-17 14:46:00,
2013-02-17 07:51:00,28.3,11.1,29.84,NE,35,3.5,3.5,48,0.00,-RA,OVC,0.00,WeatherDisplay:10.37,2013-02-17 14:51:00,
2013-02-17 07:56:00,29.1,9.9,29.84,SSE,157,2.3,2.3,44,0.00,-RA,OVC,0.00,WeatherDisplay:10.37,2013-02-17 14:56:00,
2013-02-17 08:01:00,29.8,9.5,29.84,East,93,2.0,2.0,42,0.00,-RA,OVC,0.00,WeatherDisplay:10.37,2013-02-17 15:01:00,
2013-02-17 08:06:00,30.7,10.3,29.84,ENE,65,2.3,2.3,42,0.00,-RA,OVC,0.00,WeatherDisplay:10.37,2013-02-17 15:06:00,
2013-02-17 08:11:00,31.4,9.8,29.84,ENE,65,2.3,2.3,40,0.00,-RA,OVC,0.00,WeatherDisplay:10.37,2013-02-17 15:11:00,
2013-02-17 08:16:00,31.8,10.7,29.84,ENE,65,3.0,3.0,41,0.00,-RA,OVC,0.00,WeatherDisplay:10.37,2013-02-17 15:16:00,
2013-02-17 08:21:00,32.3,9.5,29.84,ENE,65,2.3,2.3,38,0.00,-RA,OVC,0.00,WeatherDisplay:10.37,2013-02-17 15:21:00,
2013-02-17 08:26:00,32.8,9.9,29.84,ENE,65,0.0,0.0,38,0.00,-RA,OVC,0.00,WeatherDisplay:10.37,2013-02-17 15:26:00,
2013-02-17 08:31:00,33.2,9.1,29.84,ENE,63,2.3,2.3,36,0.00,-RA,OVC,0.00,WeatherDisplay:10.37,2013-02-17 15:31:00,
2013-02-17 08:36:00,33.9,7.1,29.84,NNE,28,5.0,5.0,32,0.00,-RA,OVC,0.00,WeatherDisplay:10.37,2013-02-17 15:36:00,
2013-02-17 08:41:00,35.3,7.6,29.84,North,355,3.5,3.5,31,0.00,-RA,OVC,0.00,WeatherDisplay:10.37,2013-02-17 15:41:00,
2013-02-17 08:46:00,36.6,7.3,29.84,NE,52,3.5,3.5,29,0.00,-RA,OVC,0.00,WeatherDisplay:10.37,2013-02-17 15:46:00,
2013-02-17 08:51:00,37.6,6.6,29.84,NE,52,3.5,3.5,27,0.00,-RA,OVC,0.00,WeatherDisplay:10.37,2013-02-17 15:51:00,
2013-02-17 08:56:00,38.7,6.7,29.84,NNE,25,4.6,4.6,26,0.00,-RA,OVC,0.00,WeatherDisplay:10.37,2013-02-17 15:56:00,
2013-02-17 09:01:00,39.6,6.6,29.84,NNE,12,4.0,4.0,25,0.00,-RA,OVC,0.00,WeatherDisplay:10.37,2013-02-17 16:01:00,
2013-02-17 09:06:00,40.5,6.5,29.84,North,5,3.5,3.5,24,0.00,-RA,OVC,0.00,WeatherDisplay:10.37,2013-02-17 16:06:00,
2013-02-17 09:11:00,41.2,5.2,29.84,North,5,3.5,3.5,22,0.00,-RA,OVC,0.00,WeatherDisplay:10.37,2013-02-17 16:11:00,
2013-02-17 09:16:00,41.8,7.6,29.84,North,5,3.5,3.5,24,0.00,-RA,OVC,0.00,WeatherDisplay:10.37,2013-02-17 16:16:00,
2013-02-17 09:21:00,42.4,7.2,29.84,North,5,2.3,2.3,23,0.00,-RA,OVC,0.00,WeatherDisplay:10.37,2013-02-17 16:21:00,
2013-02-17 09:26:00,43.1,7.7,29.84,North,5,3.5,3.5,23,0.00,-RA,OVC,0.00,WeatherDisplay:10.37,2013-02-17 16:26:00,
2013-02-17 09:31:00,43.6,8.2,29.84,North,5,4.6,4.6,23,0.00,-RA,OVC,0.00,WeatherDisplay:10.37,2013-02-17 16:31:00,
2013-02-17 09:36:00,44.1,7.6,29.84,NNE,32,4.6,4.6,22,0.00,-RA,OVC,0.00,WeatherDisplay:10.37,2013-02-17 16:36:00,
2013-02-17 09:41:00,44.8,7.2,29.77,NNE,31,4.6,4.6,21,0.00,-RA,OVC,0.00,WeatherDisplay:10.37,2013-02-17 16:41:00,
2013-02-17 09:46:00,45.6,6.8,29.77,NNW,340,5.8,5.8,20,0.00,-RA,OVC,0.00,WeatherDisplay:10.37,2013-02-17 16:46:00,
2013-02-17 09:51:00,46.3,6.2,29.77,North,355,11.5,11.5,19,0.00,-RA,OVC,0.00,WeatherDisplay:10.37,2013-02-17 16:51:00,
2013-02-17 09:56:00,47.0,5.6,29.77,NNE,22,3.5,3.6,18,0.00,-RA,OVC,0.00,WeatherDisplay:10.37,2013-02-17 16:56:00,
2013-02-17 10:01:00,48.0,5.2,29.77,NNW,330,9.2,9.2,17,0.00,-RA,OVC,0.00,WeatherDisplay:10.37,2013-02-17 17:01:00,
2013-02-17 10:06:00,48.8,3.1,29.77,NNW,348,10.4,10.4,15,0.00,-RA,OVC,0.00,WeatherDisplay:10.37,2013-02-17 17:06:00,
2013-02-17 10:11:00,49.6,2.3,29.77,NNE,17,3.5,3.5,14,0.00,-RA,OVC,0.00,WeatherDisplay:10.37,2013-02-17 17:11:00,
2013-02-17 10:16:00,50.3,1.2,29.77,NE,36,4.6,4.6,13,0.00,-RA,OVC,0.00,WeatherDisplay:10.37,2013-02-17 17:16:00,
2013-02-17 10:21:00,51.0,1.8,29.77,South,176,0.0,0.0,13,0.00,-RA,OVC,0.00,WeatherDisplay:10.37,2013-02-17 17:21:00,
2013-02-17 10:26:00,51.9,2.5,29.77,NE,37,3.5,4.5,13,0.00,-RA,OVC,0.00,WeatherDisplay:10.37,2013-02-17 17:26:00,
2013-02-17 10:31:00,52.5,1.2,29.77,NW,323,10.4,10.4,12,0.00,-RA,OVC,0.00,WeatherDisplay:10.37,2013-02-17 17:31:00,
2013-02-17 10:36:00,52.6,1.3,29.77,NNW,348,11.5,11.5,12,0.00,-RA,OVC,0.00,WeatherDisplay:10.37,2013-02-17 17:36:00,
2013-02-17 10:41:00,52.7,1.4,29.77,North,355,6.9,6.9,12,0.00,-RA,OVC,0.00,WeatherDisplay:10.37,2013-02-17 17:41:00,
2013-02-17 10:46:00,53.2,1.8,29.77,NNW,327,6.9,6.9,12,0.00,-RA,OVC,0.00,WeatherDisplay:10.37,2013-02-17 17:46:00,
2013-02-17 10:51:00,53.8,4.0,29.77,NNW,345,5.8,5.8,13,0.00,-RA,OVC,0.00,WeatherDisplay:10.37,2013-02-17 17:51:00,
2013-02-17 10:56:00,54.7,3.0,29.77,North,350,4.0,4.0,12,0.00,-RA,OVC,0.00,WeatherDisplay:10.37,2013-02-17 17:56:00,
2013-02-17 11:01:00,55.4,1.7,29.77,WNW,300,10.4,10.4,11,0.00,-RA,OVC,0.00,WeatherDisplay:10.37,2013-02-17 18:01:00,
2013-02-17 11:06:00,55.9,2.0,29.77,NNW,335,11.5,11.5,11,0.00,-RA,OVC,0.00,WeatherDisplay:10.37,2013-02-17 18:06:00,
2013-02-17 11:11:00,56.4,0.4,29.77,NNW,340,6.9,6.9,10,0.00,-RA,OVC,0.00,WeatherDisplay:10.37,2013-02-17 18:11:00,
2013-02-17 11:16:00,56.9,0.8,29.77,NNE,12,11.5,11.5,10,0.00,-RA,OVC,0.00,WeatherDisplay:10.37,2013-02-17 18:16:00,
2013-02-17 11:21:00,57.5,1.2,29.77,NNW,331,6.9,6.9,10,0.00,-RA,OVC,0.00,WeatherDisplay:10.37,2013-02-17 18:21:00,
2013-02-17 11:26:00,58.0,-3.1,29.77,North,350,12.7,12.7,8,0.00,-RA,OVC,0.00,WeatherDisplay:10.37,2013-02-17 18:26:00,
2013-02-17 11:31:00,58.0,1.6,29.77,NNW,340,9.0,9.0,10,0.00,-RA,OVC,0.00,WeatherDisplay:10.37,2013-02-17 18:31:00,
2013-02-17 11:36:00,58.5,-2.7,29.77,NNW,333,6.9,6.9,8,0.00,-RA,OVC,0.00,WeatherDisplay:10.37,2013-02-17 18:36:00,
2013-02-17 11:41:00,58.9,-5.2,29.77,NNW,333,6.9,6.9,7,0.00,-RA,OVC,0.00,WeatherDisplay:10.37,2013-02-17 18:41:00,
2013-02-17 11:46:00,59.2,-2.2,29.77,South,191,1.1,1.5,8,0.00,-RA,OVC,0.00,WeatherDisplay:10.37,2013-02-17 18:46:00,
2013-02-17 11:51:00,59.3,-4.9,29.77,ESE,115,4.6,4.6,7,0.00,-RA,OVC,0.00,WeatherDisplay:10.37,2013-02-17 18:51:00,
2013-02-17 11:56:00,59.5,-2.0,29.77,NNE,19,8.1,8.1,8,0.00,-RA,OVC,0.00,WeatherDisplay:10.37,2013-02-17 18:56:00,
2013-02-17 12:01:00,60.0,-4.4,29.77,NNE,20,3.5,3.5,7,0.00,-RA,OVC,0.00,WeatherDisplay:10.37,2013-02-17 19:01:00,
2013-02-17 12:06:00,60.5,-4.1,29.77,NNW,343,3.5,3.5,7,0.00,-RA,OVC,0.00,WeatherDisplay:10.37,2013-02-17 19:06:00,
2013-02-17 12:11:00,60.7,-7.1,29.77,SE,138,4.6,4.6,6,0.00,-RA,OVC,0.00,WeatherDisplay:10.37,2013-02-17 19:11:00,
2013-02-17 12:16:00,60.4,-4.1,29.77,SE,138,0.0,0.1,7,0.00,-RA,OVC,0.00,WeatherDisplay:10.37,2013-02-17 19:16:00,
2013-02-17 12:21:00,60.6,-7.2,29.77,East,95,6.9,6.9,6,0.00,-RA,OVC,0.00,WeatherDisplay:10.37,2013-02-17 19:21:00,
2013-02-17 12:26:00,60.6,-7.2,29.77,NE,55,2.3,2.3,6,0.00,-RA,OVC,0.00,WeatherDisplay:10.37,2013-02-17 19:26:00,
2013-02-17 12:31:00,60.7,-3.9,29.77,ESE,116,4.6,4.6,7,0.00,-RA,OVC,0.00,WeatherDisplay:10.37,2013-02-17 19:31:00,
2013-02-17 12:36:00,60.4,-4.1,29.77,SE,131,3.5,3.5,7,0.00,-RA,OVC,0.00,WeatherDisplay:10.37,2013-02-17 19:36:00,
2013-02-17 12:41:00,60.0,-4.4,29.77,SE,136,4.6,4.6,7,0.00,-RA,OVC,0.00,WeatherDisplay:10.37,2013-02-17 19:41:00,
2013-02-17 12:46:00,60.0,-4.4,29.77,SE,136,4.0,4.0,7,0.00,-RA,OVC,0.00,WeatherDisplay:10.37,2013-02-17 19:46:00,
2013-02-17 12:51:00,59.9,-4.5,29.77,SE,146,1.1,1.1,7,0.00,-RA,OVC,0.00,WeatherDisplay:10.37,2013-02-17 19:51:00,
2013-02-17 12:56:00,59.7,-4.6,29.77,ESE,114,8.1,8.1,7,0.00,-RA,OVC,0.00,WeatherDisplay:10.37,2013-02-17 19:56:00,
2013-02-17 13:01:00,59.4,-4.9,29.77,South,177,10.0,10.0,7,0.00,-RA,OVC,0.00,WeatherDisplay:10.37,2013-02-17 20:01:00,
2013-02-17 13:06:00,59.3,-4.9,29.77,South,182,4.6,4.6,7,0.00,-RA,OVC,0.00,WeatherDisplay:10.37,2013-02-17 20:06:00,
2013-02-17 13:11:00,59.1,-5.1,29.77,SE,136,3.5,3.5,7,0.00,-RA,OVC,0.00,WeatherDisplay:10.37,2013-02-17 20:11:00,
2013-02-17 13:16:00,59.3,-4.9,29.66,SE,136,1.1,1.1,7,0.00,-RA,OVC,0.00,WeatherDisplay:10.37,2013-02-17 20:16:00,
2013-02-17 13:21:00,59.9,-4.5,29.66,ENE,71,10.4,10.4,7,0.00,-RA,OVC,0.00,WeatherDisplay:10.37,2013-02-17 20:21:00,
2013-02-17 13:26:00,60.3,-4.2,29.65,ESE,118,3.5,3.5,7,0.00,-RA,OVC,0.00,WeatherDisplay:10.37,2013-02-17 20:26:00,
2013-02-17 13:31:00,60.6,-4.0,29.65,East,80,5.8,5.8,7,0.00,-RA,OVC,0.00,WeatherDisplay:10.37,2013-02-17 20:31:00,
2013-02-17 13:36:00,60.7,-7.1,29.65,East,91,11.5,11.5,6,0.00,-RA,OVC,0.00,WeatherDisplay:10.37,2013-02-17 20:36:00,
2013-02-17 13:41:00,60.5,-7.2,29.65,NE,53,6.9,6.9,6,0.00,-RA,OVC,0.00,WeatherDisplay:10.37,2013-02-17 20:41:00,
2013-02-17 13:46:00,60.1,-11.3,29.65,ENE,70,12.7,12.7,5,0.00,-RA,OVC,0.00,WeatherDisplay:10.37,2013-02-17 20:46:00,
2013-02-17 13:51:00,60.0,-7.6,29.65,ESE,105,6.9,6.9,6,0.00,-RA,OVC,0.00,WeatherDisplay:10.37,2013-02-17 20:51:00,
2013-02-17 13:56:00,60.3,-7.4,29.63,NE,52,19.6,19.6,6,0.00,-RA,OVC,0.00,WeatherDisplay:10.37,2013-02-17 20:56:00,
2013-02-17 14:01:00,60.6,-7.2,29.63,East,91,13.8,13.8,6,0.00,-RA,OVC,0.00,WeatherDisplay:10.37,2013-02-17 21:01:00,
2013-02-17 14:06:00,61.0,-10.6,29.63,SE,142,18.4,18.4,5,0.00,-RA,OVC,0.00,WeatherDisplay:10.37,2013-02-17 21:06:00,
2013-02-17 14:11:00,61.0,-6.9,29.63,East,86,13.8,13.8,6,0.00,-RA,OVC,0.00,WeatherDisplay:10.37,2013-02-17 21:11:00,
2013-02-17 14:16:00,61.0,-10.6,29.63,East,90,20.7,20.7,5,0.00,-RA,OVC,0.00,WeatherDisplay:10.37,2013-02-17 21:16:00,
2013-02-17 14:21:00,60.7,-10.8,29.63,East,95,17.3,17.3,5,0.00,-RA,OVC,0.00,WeatherDisplay:10.37,2013-02-17 21:21:00,
2013-02-17 14:26:00,60.5,-11.0,29.63,ESE,107,15.0,15.0,5,0.00,-RA,OVC,0.00,WeatherDisplay:10.37,2013-02-17 21:26:00,
2013-02-17 14:31:00,60.3,-11.1,29.63,NE,53,18.4,18.4,5,0.00,-RA,OVC,0.00,WeatherDisplay:10.37,2013-02-17 21:31:00,
2013-02-17 14:36:00,59.9,-11.4,29.63,East,95,18.4,18.4,5,0.00,-RA,OVC,0.00,WeatherDisplay:10.37,2013-02-17 21:36:00,
2013-02-17 14:41:00,59.9,-7.7,29.63,North,9,16.1,16.1,6,0.00,-RA,OVC,0.00,WeatherDisplay:10.37,2013-02-17 21:41:00,
2013-02-17 14:46:00,60.4,-11.0,29.62,East,95,15.0,15.0,5,0.00,-RA,OVC,0.00,WeatherDisplay:10.37,2013-02-17 21:46:00,
2013-02-17 14:49:00,60.2,-7.5,29.62,ESE,119,21.0,21.0,6,0.00,-RA,OVC,0.00,WeatherDisplay:10.37,2013-02-17 21:49:00,
2013-02-17 14:51:00,60.2,-7.5,29.62,ESE,119,21.0,21.0,6,0.00,-RA,OVC,0.00,WeatherDisplay:10.37,2013-02-17 21:51:00,
2013-02-17 14:56:00,60.2,-7.5,29.62,ESE,119,21.0,21.0,6,0.00,-RA,OVC,0.00,WeatherDisplay:10.37,2013-02-17 21:56:00,
2013-02-17 15:01:00,60.2,-7.5,29.62,East,98,19.6,19.6,6,0.00,-RA,OVC,0.00,WeatherDisplay:10.37,2013-02-17 22:01:00,
2013-02-17 15:06:00,60.0,-7.6,29.62,NE,44,19.6,19.6,6,0.00,-RA,OVC,0.00,WeatherDisplay:10.37,2013-02-17 22:06:00,
2013-02-17 15:11:00,60.1,-7.5,29.62,ENE,68,17.3,17.3,6,0.00,-RA,OVC,0.00,WeatherDisplay:10.37,2013-02-17 22:11:00,
2013-02-17 15:16:00,59.9,-11.4,29.62,ESE,112,16.1,16.1,5,0.00,-RA,OVC,0.00,WeatherDisplay:10.37,2013-02-17 22:16:00,
2013-02-17 15:21:00,60.1,-11.3,29.62,East,88,9.2,9.2,5,0.00,-RA,OVC,0.00,WeatherDisplay:10.37,2013-02-17 22:21:00,
2013-02-17 15:26:00,60.2,-11.2,29.62,ESE,117,10.4,10.4,5,0.00,-RA,OVC,0.00,WeatherDisplay:10.37,2013-02-17 22:26:00,
2013-02-17 15:31:00,60.0,-11.3,29.62,East,96,13.8,13.8,5,0.00,-RA,OVC,0.00,WeatherDisplay:10.37,2013-02-17 22:31:00,
2013-02-17 15:36:00,59.5,-11.7,29.62,ESE,110,11.5,11.5,5,0.00,-RA,OVC,0.00,WeatherDisplay:10.37,2013-02-17 22:36:00,
2013-02-17 15:41:00,59.0,-22.0,29.62,ENE,78,20.7,20.7,3,0.00,-RA,OVC,0.00,WeatherDisplay:10.37,2013-02-17 22:41:00,
2013-02-17 15:46:00,59.0,-16.5,29.62,SE,144,13.8,13.8,4,0.00,-RA,OVC,0.00,WeatherDisplay:10.37,2013-02-17 22:46:00,
2013-02-17 15:51:00,59.3,-16.3,29.62,SSE,155,21.9,21.9,4,0.00,-RA,OVC,0.00,WeatherDisplay:10.37,2013-02-17 22:51:00,
2013-02-17 15:56:00,59.1,-16.4,29.62,East,100,18.4,18.4,4,0.00,-RA,OVC,0.00,WeatherDisplay:10.37,2013-02-17 22:56:00,
2013-02-17 16:01:00,58.7,-16.7,29.62,ESE,123,19.6,19.6,4,0.00,-RA,OVC,0.00,WeatherDisplay:10.37,2013-02-17 23:01:00,
2013-02-17 16:06:00,58.7,-12.3,29.62,ESE,105,16.1,16.1,5,0.00,-RA,OVC,0.00,WeatherDisplay:10.37,2013-02-17 23:06:00,
2013-02-17 16:11:00,58.5,-12.4,29.62,ESE,123,13.8,13.8,5,0.00,-RA,OVC,0.00,WeatherDisplay:10.37,2013-02-17 23:11:00,
2013-02-17 16:16:00,58.4,-12.5,29.62,SE,124,9.2,9.2,5,0.00,-RA,OVC,0.00,WeatherDisplay:10.37,2013-02-17 23:16:00,
2013-02-17 16:21:00,58.1,-12.7,29.62,East,91,11.5,11.5,5,0.00,-RA,OVC,0.00,WeatherDisplay:10.37,2013-02-17 23:21:00,
2013-02-17 16:26:00,57.7,-13.0,29.62,ESE,112,15.0,15.0,5,0.00,-RA,OVC,0.00,WeatherDisplay:10.37,2013-02-17 23:26:00,
2013-02-17 16:31:00,57.6,-9.4,29.62,East,99,10.4,10.4,6,0.00,-RA,OVC,0.00,WeatherDisplay:10.37,2013-02-17 23:31:00,
2013-02-17 16:36:00,57.5,-9.4,29.62,SE,138,11.5,11.5,6,0.00,-RA,OVC,0.00,WeatherDisplay:10.37,2013-02-17 23:36:00,
2013-02-17 16:41:00,57.5,-9.4,29.62,ESE,102,11.5,11.5,6,0.00,-RA,OVC,0.00,WeatherDisplay:10.37,2013-02-17 23:41:00,
2013-02-17 16:46:00,57.2,-9.7,29.62,ESE,102,10.4,10.4,6,0.00,-RA,OVC,0.00,WeatherDisplay:10.37,2013-02-17 23:46:00,
2013-02-17 16:51:00,57.1,-9.7,29.62,SSE,161,9.2,9.2,6,0.00,-RA,OVC,0.00,WeatherDisplay:10.37,2013-02-17 23:51:00,
2013-02-17 16:56:00,56.7,-13.7,29.62,ESE,109,13.8,13.8,5,0.00,-RA,OVC,0.00,WeatherDisplay:10.37,2013-02-17 23:56:00,
2013-02-17 17:01:00,56.2,-10.4,29.62,ENE,63,9.2,9.2,6,0.00,-RA,OVC,0.00,WeatherDisplay:10.37,2013-02-18 00:01:00,
2013-02-17 17:06:00,55.8,-10.7,29.62,SE,128,10.4,10.4,6,0.00,-RA,OVC,0.00,WeatherDisplay:10.37,2013-02-18 00:06:00,
2013-02-17 17:11:00,55.5,-10.9,29.62,SE,134,11.5,11.5,6,0.00,-RA,OVC,0.00,WeatherDisplay:10.37,2013-02-18 00:11:00,
2013-02-17 17:16:00,55.3,-7.9,29.62,SE,126,10.4,10.4,7,0.00,-RA,OVC,0.00,WeatherDisplay:10.37,2013-02-18 00:16:00,
2013-02-17 17:21:00,55.1,-11.2,29.62,SE,138,11.5,11.5,6,0.00,-RA,OVC,0.00,WeatherDisplay:10.37,2013-02-18 00:21:00,
2013-02-17 17:26:00,54.9,-8.2,29.62,ESE,121,6.9,6.9,7,0.00,-RA,OVC,0.00,WeatherDisplay:10.37,2013-02-18 00:26:00,
2013-02-17 17:31:00,54.6,-8.4,29.62,ESE,113,4.6,4.6,7,0.00,-RA,OVC,0.00,WeatherDisplay:10.37,2013-02-18 00:31:00,
2013-02-17 17:36:00,54.1,-8.8,29.62,ESE,115,9.2,9.2,7,0.00,-RA,OVC,0.00,WeatherDisplay:10.37,2013-02-18 00:36:00,
2013-02-17 17:41:00,53.9,-9.0,29.62,ESE,123,4.6,4.6,7,0.00,-RA,OVC,0.00,WeatherDisplay:10.37,2013-02-18 00:41:00,
2013-02-17 17:46:00,53.5,-9.3,29.62,SE,131,8.1,8.1,7,0.00,-RA,OVC,0.00,WeatherDisplay:10.37,2013-02-18 00:46:00,
2013-02-17 17:51:00,53.2,-9.5,29.62,ESE,107,5.8,5.8,7,0.00,-RA,OVC,0.00,WeatherDisplay:10.37,2013-02-18 00:51:00,
2013-02-17 17:56:00,52.8,-7.0,29.62,ESE,123,6.9,6.9,8,0.00,-RA,OVC,0.00,WeatherDisplay:10.37,2013-02-18 00:56:00,
2013-02-17 18:01:00,52.7,-7.1,29.62,ESE,107,3.5,3.5,8,0.00,-RA,OVC,0.00,WeatherDisplay:10.37,2013-02-18 01:01:00,
2013-02-17 18:06:00,52.4,-7.4,29.62,SE,128,8.1,8.1,8,0.00,-RA,OVC,0.00,WeatherDisplay:10.37,2013-02-18 01:06:00,
2013-02-17 18:11:00,52.5,-7.3,29.62,ESE,115,4.6,4.6,8,0.00,-RA,OVC,0.00,WeatherDisplay:10.37,2013-02-18 01:11:00,
2013-02-17 18:16:00,52.3,-7.4,29.62,ESE,107,9.2,9.2,8,0.00,-RA,OVC,0.00,WeatherDisplay:10.37,2013-02-18 01:16:00,
2013-02-17 18:21:00,52.2,-7.5,29.62,East,99,9.2,9.2,8,0.00,-RA,OVC,0.00,WeatherDisplay:10.37,2013-02-18 01:21:00,
2013-02-17 18:26:00,52.0,-7.7,29.62,SE,130,5.8,5.8,8,0.00,-RA,OVC,0.00,WeatherDisplay:10.37,2013-02-18 01:26:00,
2013-02-17 18:31:00,51.7,-7.9,29.62,SE,130,4.6,4.6,8,0.00,-RA,OVC,0.00,WeatherDisplay:10.37,2013-02-18 01:31:00,
2013-02-17 18:36:00,51.1,-5.9,29.62,SE,127,5.8,5.8,9,0.00,-RA,OVC,0.00,WeatherDisplay:10.37,2013-02-18 01:36:00,
2013-02-17 18:41:00,50.6,-4.1,29.62,ESE,117,5.8,5.8,10,0.00,-RA,OVC,0.00,WeatherDisplay:10.37,2013-02-18 01:41:00,
2013-02-17 18:46:00,50.4,-4.3,29.62,ESE,121,3.5,3.7,10,0.00,-RA,OVC,0.00,WeatherDisplay:10.37,2013-02-18 01:46:00,
2013-02-17 18:51:00,50.1,-2.5,29.63,ESE,113,5.8,5.8,11,0.00,-RA,OVC,0.00,WeatherDisplay:10.37,2013-02-18 01:51:00,
2013-02-17 18:56:00,49.8,-0.9,29.63,ESE,115,4.6,4.6,12,0.00,-RA,OVC,0.00,WeatherDisplay:10.37,2013-02-18 01:56:00,
2013-02-17 19:01:00,49.5,-1.1,29.63,ESE,106,4.6,4.6,12,0.00,-RA,OVC,0.00,WeatherDisplay:10.37,2013-02-18 02:01:00,
2013-02-17 19:06:00,49.1,0.3,29.63,ESE,121,4.6,4.6,13,0.00,-RA,OVC,0.00,WeatherDisplay:10.37,2013-02-18 02:06:00,
2013-02-17 19:11:00,48.6,-0.1,29.63,SE,125,6.0,6.0,13,0.00,-RA,OVC,0.00,WeatherDisplay:10.37,2013-02-18 02:11:00,
2013-02-17 19:16:00,48.3,1.2,29.63,SE,128,9.2,9.2,14,0.00,-RA,OVC,0.00,WeatherDisplay:10.37,2013-02-18 02:16:00,
2013-02-17 19:21:00,48.3,1.2,29.63,ESE,115,4.6,4.6,14,0.00,-RA,OVC,0.00,WeatherDisplay:10.37,2013-02-18 02:21:00,
2013-02-17 19:26:00,48.1,1.1,29.63,East,98,4.6,4.6,14,0.00,-RA,OVC,0.00,WeatherDisplay:10.37,2013-02-18 02:26:00,
2013-02-17 19:31:00,47.8,2.3,29.63,ESE,108,3.5,3.5,15,0.00,-RA,OVC,0.00,WeatherDisplay:10.37,2013-02-18 02:31:00,
2013-02-17 19:36:00,47.5,2.1,29.64,ESE,103,4.0,4.0,15,0.00,-RA,OVC,0.00,WeatherDisplay:10.37,2013-02-18 02:36:00,
2013-02-17 19:41:00,47.3,3.3,29.64,East,100,3.5,3.5,16,0.00,-RA,OVC,0.00,WeatherDisplay:10.37,2013-02-18 02:41:00,
2013-02-17 19:46:00,47.0,3.0,29.64,East,101,3.5,3.5,16,0.00,-RA,OVC,0.00,WeatherDisplay:10.37,2013-02-18 02:46:00,
2013-02-17 19:51:00,46.8,2.9,29.64,ESE,107,3.5,3.5,16,0.00,-RA,OVC,0.00,WeatherDisplay:10.37,2013-02-18 02:51:00,
2013-02-17 19:56:00,46.5,3.9,29.64,ESE,107,3.5,3.5,17,0.00,-RA,OVC,0.00,WeatherDisplay:10.37,2013-02-18 02:56:00,
2013-02-17 20:01:00,46.3,3.8,29.64,ESE,107,4.6,4.6,17,0.00,-RA,OVC,0.00,WeatherDisplay:10.37,2013-02-18 03:01:00,
2013-02-17 20:06:00,46.2,4.9,29.64,ESE,117,0.0,0.0,18,0.00,-RA,OVC,0.00,WeatherDisplay:10.37,2013-02-18 03:06:00,
2013-02-17 20:11:00,45.7,4.5,29.64,West,264,3.5,3.5,18,0.00,-RA,OVC,0.00,WeatherDisplay:10.37,2013-02-18 03:11:00,
2013-02-17 20:16:00,44.8,3.8,29.64,West,270,3.5,3.5,18,0.00,-RA,OVC,0.00,WeatherDisplay:10.37,2013-02-18 03:16:00,
2013-02-17 20:21:00,44.0,9.5,29.64,West,268,11.5,11.5,24,0.00,-RA,OVC,0.00,WeatherDisplay:10.37,2013-02-18 03:21:00,
2013-02-17 20:26:00,42.8,12.7,29.64,West,277,11.5,11.5,29,0.00,-RA,OVC,0.00,WeatherDisplay:10.37,2013-02-18 03:26:00,
2013-02-17 20:31:00,42.0,12.8,29.64,West,271,6.9,6.9,30,0.00,-RA,OVC,0.00,WeatherDisplay:10.37,2013-02-18 03:31:00,
2013-02-17 20:36:00,41.4,13.7,29.64,NNW,327,5.8,5.8,32,0.00,-RA,OVC,0.00,WeatherDisplay:10.37,2013-02-18 03:36:00,
2013-02-17 20:41:00,40.8,15.2,29.64,WNW,291,3.5,3.5,35,0.00,-RA,OVC,0.00,WeatherDisplay:10.37,2013-02-18 03:41:00,
2013-02-17 20:46:00,40.1,15.9,29.64,West,265,3.5,3.5,37,0.00,-RA,OVC,0.00,WeatherDisplay:10.37,2013-02-18 03:46:00,
2013-02-17 20:51:00,39.4,17.0,29.64,West,273,5.0,5.0,40,0.00,-RA,OVC,0.00,WeatherDisplay:10.37,2013-02-18 03:51:00,
2013-02-17 20:56:00,38.6,18.0,29.64,West,260,6.9,6.9,43,0.00,-RA,OVC,0.00,WeatherDisplay:10.37,2013-02-18 03:56:00,
2013-02-17 21:01:00,38.0,18.0,29.64,NNW,342,5.8,5.8,44,0.00,-RA,OVC,0.00,WeatherDisplay:10.37,2013-02-18 04:01:00,
2013-02-17 21:06:00,37.6,18.2,29.64,NNW,343,8.1,8.1,45,0.00,-RA,OVC,0.00,WeatherDisplay:10.37,2013-02-18 04:06:00,
2013-02-17 21:11:00,37.2,17.8,29.64,West,269,2.3,0.0,45,0.00,-RA,OVC,0.00,WeatherDisplay:10.37,2013-02-18 04:11:00,
2013-02-17 21:16:00,36.9,18.0,29.64,WNW,289,4.6,4.6,46,0.00,-RA,OVC,0.00,WeatherDisplay:10.37,2013-02-18 04:16:00,
2013-02-17 21:21:00,36.5,17.7,29.64,NNW,338,6.9,6.9,46,0.00,-RA,OVC,0.00,WeatherDisplay:10.37,2013-02-18 04:21:00,
2013-02-17 21:26:00,36.2,17.4,29.64,NNW,334,2.3,2.3,46,0.00,-RA,OVC,0.00,WeatherDisplay:10.37,2013-02-18 04:26:00,
2013-02-17 21:31:00,35.9,17.1,29.64,NNW,334,1.1,0.0,46,0.00,-RA,OVC,0.00,WeatherDisplay:10.37,2013-02-18 04:31:00,
2013-02-17 21:36:00,35.6,17.3,29.64,NNW,334,0.0,0.0,47,0.00,-RA,OVC,0.00,WeatherDisplay:10.37,2013-02-18 04:36:00,
2013-02-17 21:41:00,35.3,17.1,29.64,NNW,334,0.0,1.1,47,0.00,-RA,OVC,0.00,WeatherDisplay:10.37,2013-02-18 04:41:00,
2013-02-17 21:46:00,35.1,16.9,29.64,NNW,340,3.5,3.5,47,0.00,-RA,OVC,0.00,WeatherDisplay:10.37,2013-02-18 04:46:00,
2013-02-17 21:51:00,34.9,16.7,29.64,NNW,340,3.5,3.5,47,0.00,-RA,OVC,0.00,WeatherDisplay:10.37,2013-02-18 04:51:00,
2013-02-17 21:56:00,34.8,17.1,29.64,NNW,340,0.0,0.0,48,0.00,-RA,OVC,0.00,WeatherDisplay:10.37,2013-02-18 04:56:00,
2013-02-17 22:00:00,34.6,16.9,29.64,NNW,340,1.1,1.1,48,0.00,-RA,OVC,0.00,WeatherDisplay:10.37,2013-02-18 05:00:00,
2013-02-17 22:05:00,34.3,16.6,29.64,NNW,340,0.0,0.0,48,0.00,-RA,OVC,0.00,WeatherDisplay:10.37,2013-02-18 05:05:00,
2013-02-17 22:10:00,34.1,16.4,29.64,NNW,340,3.5,3.5,48,0.00,-RA,OVC,0.00,WeatherDisplay:10.37,2013-02-18 05:10:00,
2013-02-17 22:15:00,33.9,16.7,29.64,NNW,340,3.5,3.5,49,0.00,-RA,OVC,0.00,WeatherDisplay:10.37,2013-02-18 05:15:00,
2013-02-17 22:20:00,33.6,16.5,29.64,NNW,340,0.0,0.0,49,0.00,-RA,OVC,0.00,WeatherDisplay:10.37,2013-02-18 05:20:00,
2013-02-17 22:25:00,33.4,16.3,29.64,NNW,340,3.0,3.0,49,0.00,-RA,OVC,0.00,WeatherDisplay:10.37,2013-02-18 05:25:00,
2013-02-17 22:30:00,33.2,16.5,29.64,NNW,340,3.5,3.5,50,0.00,-RA,OVC,0.00,WeatherDisplay:10.37,2013-02-18 05:30:00,
2013-02-17 22:35:00,33.1,16.9,29.64,NNW,338,3.5,3.5,51,0.00,-RA,OVC,0.00,WeatherDisplay:10.37,2013-02-18 05:35:00,
2013-02-17 22:40:00,33.0,16.8,29.64,NNW,338,2.3,2.3,51,0.00,-RA,OVC,0.00,WeatherDisplay:10.37,2013-02-18 05:40:00,
2013-02-17 22:45:00,32.8,16.6,29.64,NNW,338,0.0,0.0,51,0.00,-RA,OVC,0.00,WeatherDisplay:10.37,2013-02-18 05:45:00,
2013-02-17 22:50:00,32.6,16.4,29.64,NNW,338,0.0,0.0,51,0.00,-RA,OVC,0.00,WeatherDisplay:10.37,2013-02-18 05:50:00,
2013-02-17 22:55:00,32.4,16.7,29.64,NNW,338,0.0,0.0,52,0.00,-RA,OVC,0.00,WeatherDisplay:10.37,2013-02-18 05:55:00,
2013-02-17 23:00:00,32.0,16.8,29.64,NNW,338,1.1,1.1,53,0.00,-RA,OVC,0.00,WeatherDisplay:10.37,2013-02-18 06:00:00,
2013-02-17 23:05:00,31.8,16.6,29.64,NNW,338,0.0,0.0,53,0.00,-RA,OVC,0.00,WeatherDisplay:10.37,2013-02-18 06:05:00,
2013-02-17 23:10:00,31.5,16.7,29.64,NNW,338,0.0,0.0,54,0.00,-RA,OVC,0.00,WeatherDisplay:10.37,2013-02-18 06:10:00,
2013-02-17 23:15:00,31.4,16.7,29.64,NNW,338,1.1,1.1,54,0.00,-RA,OVC,0.00,WeatherDisplay:10.37,2013-02-18 06:15:00,
2013-02-17 23:20:00,31.3,16.6,29.64,NNW,338,0.0,0.0,54,0.00,-RA,OVC,0.00,WeatherDisplay:10.37,2013-02-18 06:20:00,
2013-02-17 23:25:00,31.2,16.9,29.64,NNW,338,0.0,0.0,55,0.00,-RA,OVC,0.00,WeatherDisplay:10.37,2013-02-18 06:25:00,
2013-02-17 23:30:00,31.1,16.8,29.64,NNW,338,0.0,0.0,55,0.00,-RA,OVC,0.00,WeatherDisplay:10.37,2013-02-18 06:30:00,
2013-02-17 23:35:00,30.9,16.6,29.64,NNW,338,0.0,0.0,55,0.00,-RA,OVC,0.00,WeatherDisplay:10.37,2013-02-18 06:35:00,
2013-02-17 23:40:00,30.9,16.6,29.64,NNW,338,0.0,0.0,55,0.00,-RA,OVC,0.00,WeatherDisplay:10.37,2013-02-18 06:40:00,
2013-02-17 23:45:00,30.7,16.4,29.64,NNW,338,0.0,0.0,55,0.00,-RA,OVC,0.00,WeatherDisplay:10.37,2013-02-18 06:45:00,
2013-02-17 23:50:00,30.6,16.3,29.64,NNW,338,0.0,0.0,55,0.00,-RA,OVC,0.00,WeatherDisplay:10.37,2013-02-18 06:50:00,
2013-02-17 23:55:00,30.4,16.1,29.64,NNW,338,0.0,0.0,55,0.00,-RA,OVC,0.00,WeatherDisplay:10.37,2013-02-18 06:55:00,